createdAt,value
2022-11-15T00:02:20.402Z,73.74
2022-11-15T00:05:09.436Z,73.64
2022-11-15T00:07:57.568Z,73.37
2022-11-15T00:10:47.006Z,73.66
2022-11-15T00:13:35.965Z,73.34
2022-11-15T00:16:24.924Z,73.24
2022-11-15T00:19:13.262Z,73.29
2022-11-15T00:22:02.302Z,73.15
2022-11-15T00:24:50.639Z,72.94
2022-11-15T00:27:39.760Z,72.90
2022-11-15T00:30:29.262Z,73.23
2022-11-15T00:33:18.240Z,73.16
2022-11-15T00:36:15.024Z,73.03
2022-11-15T00:39:04.177Z,72.99
2022-11-15T00:41:52.512Z,72.88
2022-11-15T00:44:41.871Z,73.22
2022-11-15T00:47:31.028Z,72.93
2022-11-15T00:50:20.416Z,73.02
2022-11-15T00:53:08.496Z,73.19
2022-11-15T00:55:57.228Z,73.08
2022-11-15T00:58:47.892Z,73.05
2022-11-15T01:01:37.243Z,73.17
2022-11-15T01:04:26.545Z,73.20
2022-11-15T01:07:15.653Z,73.02
2022-11-15T01:10:04.746Z,73.17
2022-11-15T01:12:53.472Z,72.99
2022-11-15T01:15:46.094Z,73.01
2022-11-15T01:18:34.509Z,72.97
2022-11-15T01:21:23.930Z,72.81
2022-11-15T01:24:16.459Z,72.95
2022-11-15T01:27:05.503Z,72.80
2022-11-15T01:29:54.071Z,72.90
2022-11-15T01:32:43.330Z,72.76
2022-11-15T01:35:31.803Z,72.89
2022-11-15T01:38:20.144Z,72.64
2022-11-15T01:41:09.340Z,72.83
2022-11-15T01:44:00.394Z,72.86
2022-11-15T01:46:51.231Z,73.04
2022-11-15T01:49:43.864Z,72.53
2022-11-15T01:52:36.163Z,72.79
2022-11-15T01:55:28.357Z,72.90
2022-11-15T01:58:17.161Z,72.53
2022-11-15T02:01:05.765Z,72.58
2022-11-15T02:04:09.318Z,72.79
2022-11-15T02:06:58.319Z,72.68
2022-11-15T02:09:49.023Z,72.58
2022-11-15T02:12:38.323Z,72.69
2022-11-15T02:15:39.841Z,72.33
2022-11-15T02:18:44.555Z,72.50
2022-11-15T02:21:52.361Z,72.58
2022-11-15T02:25:05.650Z,72.29
2022-11-15T02:28:54.827Z,71.98
2022-11-15T02:31:55.239Z,72.04
2022-11-15T02:35:25.628Z,72.10
2022-11-15T02:38:42.836Z,72.05
2022-11-15T02:41:45.006Z,72.38
2022-11-15T02:44:47.097Z,72.32
2022-11-15T02:47:44.544Z,72.40
2022-11-15T02:50:35.318Z,71.79
2022-11-15T02:53:29.231Z,71.87
2022-11-15T02:56:17.670Z,72.13
2022-11-15T02:59:29.148Z,71.76
2022-11-15T03:02:39.431Z,71.94
2022-11-15T03:05:28.019Z,71.95
2022-11-15T03:08:37.367Z,71.91
2022-11-15T03:11:27.103Z,71.79
2022-11-15T03:14:29.533Z,71.67
2022-11-15T03:17:32.039Z,71.62
2022-11-15T03:20:22.492Z,71.58
2022-11-15T03:23:13.508Z,71.47
2022-11-15T03:26:04.303Z,71.53
2022-11-15T03:28:52.762Z,71.36
2022-11-15T03:31:51.390Z,71.18
2022-11-15T03:35:07.478Z,71.36
2022-11-15T03:37:58.636Z,71.39
2022-11-15T03:40:54.338Z,71.05
2022-11-15T03:43:56.564Z,71.00
2022-11-15T03:47:05.281Z,70.94
2022-11-15T03:50:03.729Z,71.03
2022-11-15T03:52:54.646Z,70.63
2022-11-15T03:55:43.246Z,70.75
2022-11-15T03:58:31.758Z,70.57
2022-11-15T04:01:20.073Z,70.99
2022-11-15T04:04:08.576Z,70.56
2022-11-15T04:06:57.043Z,71.10
2022-11-15T04:10:03.546Z,71.06
2022-11-15T04:12:52.353Z,71.18
2022-11-15T04:15:41.100Z,70.79
2022-11-15T04:18:29.526Z,71.72
2022-11-15T04:21:36.228Z,70.76
2022-11-15T04:24:24.850Z,71.12
2022-11-15T04:27:15.969Z,70.97
2022-11-15T04:30:04.490Z,71.77
2022-11-15T04:32:53.027Z,71.38
2022-11-15T04:35:42.038Z,71.88
2022-11-15T04:38:30.511Z,71.81
2022-11-15T04:41:19.374Z,72.02
2022-11-15T04:44:08.269Z,71.59
2022-11-15T04:46:56.986Z,71.54
2022-11-15T04:49:47.224Z,71.79
2022-11-15T04:52:35.934Z,71.86
2022-11-15T04:55:24.572Z,71.75
2022-11-15T04:58:13.520Z,70.98
2022-11-15T05:01:02.280Z,71.66
2022-11-15T05:04:09.198Z,70.97
2022-11-15T05:06:57.958Z,71.48
2022-11-15T05:09:46.794Z,71.67
2022-11-15T05:12:35.438Z,71.54
2022-11-15T05:15:24.153Z,71.43
2022-11-15T05:18:12.594Z,70.83
2022-11-15T05:21:07.690Z,71.48
2022-11-15T05:23:57.718Z,71.63
2022-11-15T05:26:46.172Z,71.44
2022-11-15T05:29:34.797Z,71.46
2022-11-15T05:32:23.956Z,70.80
2022-11-15T05:35:19.788Z,71.50
2022-11-15T05:38:08.806Z,71.39
2022-11-15T05:40:58.206Z,70.76
2022-11-15T05:43:47.500Z,70.80
2022-11-15T05:46:37.914Z,70.61
2022-11-15T05:49:31.273Z,71.21
2022-11-15T05:52:24.016Z,70.99
2022-11-15T05:55:13.346Z,70.75
2022-11-15T05:58:01.746Z,71.08
2022-11-15T06:00:51.135Z,70.68
2022-11-15T06:03:39.783Z,70.57
2022-11-15T06:06:28.358Z,70.80
2022-11-15T06:09:16.767Z,70.84
2022-11-15T06:12:05.255Z,70.58
2022-11-15T06:14:53.862Z,71.02
2022-11-15T06:17:42.409Z,70.36
2022-11-15T06:20:32.278Z,70.26
2022-11-15T06:23:20.881Z,69.76
2022-11-15T06:26:09.113Z,69.89
2022-11-15T06:28:57.917Z,69.33
2022-11-15T06:31:46.547Z,69.96
2022-11-15T06:34:35.077Z,69.56
2022-11-15T06:37:23.292Z,69.51
2022-11-15T06:40:13.195Z,69.86
2022-11-15T06:43:03.021Z,69.62
2022-11-15T06:45:51.471Z,69.35
2022-11-15T06:48:40.083Z,69.57
2022-11-15T06:51:28.568Z,69.38
2022-11-15T06:54:16.861Z,69.46
2022-11-15T06:57:07.298Z,69.38
2022-11-15T06:59:55.552Z,68.91
2022-11-15T07:02:43.925Z,69.65
2022-11-15T07:05:32.766Z,69.76
2022-11-15T07:08:21.227Z,69.04
2022-11-15T07:11:12.035Z,69.43
2022-11-15T07:14:00.552Z,69.33
2022-11-15T07:16:48.862Z,69.03
2022-11-15T07:19:37.786Z,68.97
2022-11-15T07:22:26.037Z,68.88
2022-11-15T07:25:14.953Z,69.05
2022-11-15T07:28:04.442Z,68.63
2022-11-15T07:30:53.512Z,68.80
2022-11-15T07:33:42.277Z,68.80
2022-11-15T07:36:30.852Z,68.35
2022-11-15T07:39:19.540Z,68.84
2022-11-15T07:42:27.070Z,68.34
2022-11-15T07:45:15.673Z,68.67
2022-11-15T07:48:04.136Z,68.92
2022-11-15T07:50:52.833Z,69.02
2022-11-15T07:53:41.378Z,68.74
2022-11-15T07:56:29.964Z,69.19
2022-11-15T07:59:18.222Z,68.82
2022-11-15T08:02:07.174Z,68.62
2022-11-15T08:04:56.127Z,68.80
2022-11-15T08:07:44.838Z,68.29
2022-11-15T08:10:36.450Z,68.22
2022-11-15T08:13:29.261Z,68.08
2022-11-15T08:16:17.952Z,68.09
2022-11-15T08:19:06.622Z,68.22
2022-11-15T08:21:55.088Z,68.51
2022-11-15T08:24:43.865Z,68.29
2022-11-15T08:27:32.421Z,68.09
2022-11-15T08:30:20.811Z,67.84
2022-11-15T08:33:09.613Z,68.39
2022-11-15T08:36:01.382Z,68.66
2022-11-15T08:38:49.990Z,68.77
2022-11-15T08:41:41.364Z,68.40
2022-11-15T08:44:29.858Z,68.97
2022-11-15T08:47:18.665Z,68.76
2022-11-15T08:50:07.736Z,68.51
2022-11-15T08:52:56.382Z,68.40
2022-11-15T08:55:44.925Z,68.52
2022-11-15T08:58:34.059Z,68.53
2022-11-15T09:01:24.263Z,68.35
2022-11-15T09:04:13.019Z,68.27
2022-11-15T09:07:02.430Z,68.58
2022-11-15T09:09:50.985Z,68.08
2022-11-15T09:12:40.231Z,68.74
2022-11-15T09:15:28.869Z,68.78
2022-11-15T09:18:17.596Z,68.65
2022-11-15T09:21:07.651Z,68.68
2022-11-15T09:23:56.468Z,68.74
2022-11-15T09:29:49.278Z,68.46
2022-11-15T09:32:39.574Z,68.43
2022-11-15T09:35:28.117Z,68.55
2022-11-15T09:38:16.655Z,68.65
2022-11-15T09:41:17.615Z,68.46
2022-11-15T09:44:25.342Z,68.72
2022-11-15T09:47:38.030Z,68.40
2022-11-15T09:50:52.596Z,68.25
2022-11-15T09:54:13.597Z,68.63
2022-11-15T09:56:26.426Z,68.56
2022-11-15T09:59:18.158Z,68.52
2022-11-15T10:01:51.346Z,68.44
2022-11-15T10:04:22.178Z,68.32
2022-11-15T10:07:18.757Z,68.61
2022-11-15T10:09:59.756Z,68.49
2022-11-15T10:12:31.637Z,68.46
2022-11-15T10:15:16.448Z,67.98
2022-11-15T10:18:04.916Z,67.90
2022-11-15T10:20:44.169Z,67.86
2022-11-15T10:23:19.463Z,68.12
2022-11-15T10:25:50.145Z,68.21
2022-11-15T10:28:36.094Z,68.04
2022-11-15T10:31:08.739Z,67.79
2022-11-15T10:33:44.177Z,67.90
2022-11-15T10:36:17.172Z,67.87
2022-11-15T10:38:53.491Z,67.76
2022-11-15T10:41:34.595Z,68.18
2022-11-15T10:44:10.478Z,68.26
2022-11-15T10:46:47.273Z,67.73
2022-11-15T10:49:25.346Z,68.02
2022-11-15T10:51:57.341Z,67.88
2022-11-15T10:54:39.180Z,68.14
2022-11-15T10:57:18.109Z,67.87
2022-11-15T10:59:57.347Z,67.98
2022-11-15T11:02:42.651Z,68.22
2022-11-15T11:05:41.681Z,68.25
2022-11-15T11:08:15.049Z,67.59
2022-11-15T11:11:04.422Z,68.14
2022-11-15T11:13:37.704Z,68.25
2022-11-15T11:16:36.386Z,67.88
2022-11-15T11:19:39.900Z,67.90
2022-11-15T11:22:27.932Z,68.18
2022-11-15T11:25:28.959Z,68.31
2022-11-15T11:28:23.215Z,68.30
2022-11-15T11:31:11.343Z,68.47
2022-11-15T11:34:19.009Z,68.25
2022-11-15T11:37:01.063Z,68.46
2022-11-15T11:40:10.206Z,68.13
2022-11-15T11:43:02.242Z,68.24
2022-11-15T11:45:37.762Z,68.45
2022-11-15T11:48:23.069Z,68.37
2022-11-15T11:50:53.538Z,68.32
2022-11-15T11:53:34.771Z,68.46
2022-11-15T11:56:20.907Z,68.11
2022-11-15T11:58:54.209Z,68.45
2022-11-15T12:01:29.331Z,68.74
2022-11-15T12:04:05.478Z,68.52
2022-11-15T12:06:53.773Z,68.20
2022-11-15T12:09:45.638Z,67.92
2022-11-15T12:13:08.546Z,68.23
2022-11-15T12:16:10.871Z,68.45
2022-11-15T12:18:41.659Z,68.59
2022-11-15T12:21:28.338Z,68.35
2022-11-15T12:24:10.738Z,68.65
2022-11-15T12:26:50.808Z,68.44
2022-11-15T12:29:31.874Z,68.30
2022-11-15T12:32:06.917Z,68.89
2022-11-15T12:34:57.070Z,68.46
2022-11-15T12:37:43.722Z,68.46
2022-11-15T12:40:24.983Z,68.17
2022-11-15T12:43:05.913Z,68.35
2022-11-15T12:45:42.168Z,68.32
2022-11-15T12:48:21.622Z,68.30
2022-11-15T12:51:01.613Z,68.52
2022-11-15T12:53:38.082Z,68.54
2022-11-15T12:56:08.230Z,68.24
2022-11-15T12:59:01.172Z,68.49
2022-11-15T13:01:37.352Z,68.39
2022-11-15T13:04:22.454Z,68.74
2022-11-15T13:07:07.149Z,68.76
2022-11-15T13:09:40.354Z,68.68
2022-11-15T13:12:31.391Z,68.74
2022-11-15T13:15:25.139Z,68.27
2022-11-15T13:18:00.066Z,68.40
2022-11-15T13:20:35.738Z,68.96
2022-11-15T13:23:11.804Z,68.54
2022-11-15T13:34:54.217Z,68.58
2022-11-15T13:37:24.290Z,68.86
2022-11-15T13:39:54.728Z,68.58
2022-11-15T13:42:25.484Z,68.64
2022-11-15T13:45:04.172Z,68.89
2022-11-15T13:47:34.898Z,68.73
2022-11-15T13:50:09.714Z,68.81
2022-11-15T13:52:46.367Z,68.70
2022-11-15T13:55:26.486Z,69.35
2022-11-15T13:58:03.126Z,69.48
2022-11-15T14:00:47.604Z,70.21
2022-11-15T14:03:34.727Z,69.93
2022-11-15T14:06:04.853Z,70.21
2022-11-15T14:08:35.239Z,69.95
2022-11-15T14:11:16.128Z,69.52
2022-11-15T14:14:22.785Z,69.23
2022-11-15T14:16:57.066Z,68.78
2022-11-15T14:19:27.247Z,68.33
2022-11-15T14:22:18.300Z,68.36
2022-11-15T14:25:07.536Z,68.25
2022-11-15T14:27:38.608Z,68.58
2022-11-15T14:30:09.707Z,68.44
2022-11-15T14:32:58.061Z,68.63
2022-11-15T14:35:28.614Z,69.21
2022-11-15T14:37:58.802Z,68.76
2022-11-15T14:40:28.850Z,68.71
2022-11-15T14:42:58.918Z,69.10
2022-11-15T14:45:31.341Z,68.75
2022-11-15T14:48:01.574Z,69.52
2022-11-15T14:50:32.029Z,68.88
2022-11-15T14:53:02.289Z,69.36
2022-11-15T14:55:35.637Z,69.46
2022-11-15T14:58:07.359Z,68.83
2022-11-15T15:00:42.917Z,69.11
2022-11-15T15:03:13.350Z,68.84
2022-11-15T15:05:46.316Z,68.57
2022-11-15T15:08:16.472Z,68.72
2022-11-15T15:10:48.699Z,68.48
2022-11-15T15:13:22.572Z,68.41
2022-11-15T15:15:54.659Z,68.50
2022-11-15T15:18:25.679Z,68.71
2022-11-15T15:21:06.410Z,68.78
2022-11-15T15:23:38.827Z,68.22
2022-11-15T15:26:09.157Z,68.17
2022-11-15T15:28:40.409Z,68.17
2022-11-15T15:31:12.826Z,68.35
2022-11-15T15:33:43.118Z,68.45
2022-11-15T15:36:15.803Z,68.37
2022-11-15T15:38:46.184Z,68.21
2022-11-15T15:41:18.109Z,68.03
2022-11-15T15:43:48.477Z,67.52
2022-11-15T15:46:21.702Z,67.36
2022-11-15T15:48:51.898Z,67.10
2022-11-15T15:51:21.978Z,66.94
2022-11-15T15:53:53.876Z,67.02
2022-11-15T15:56:23.985Z,67.32
2022-11-15T15:58:55.737Z,66.83
2022-11-15T16:01:26.055Z,66.64
2022-11-15T16:03:56.410Z,67.03
2022-11-15T16:06:42.307Z,66.89
2022-11-15T16:09:19.968Z,66.31
2022-11-15T16:11:51.023Z,66.41
2022-11-15T16:14:21.045Z,66.42
2022-11-15T16:16:51.414Z,66.33
2022-11-15T16:19:21.575Z,66.28
2022-11-15T16:21:51.694Z,66.00
2022-11-15T16:24:23.421Z,66.25
2022-11-15T16:26:54.620Z,66.05
2022-11-15T16:29:24.941Z,65.45
2022-11-15T16:31:55.210Z,65.97
2022-11-15T16:34:29.978Z,65.72
2022-11-15T16:37:01.320Z,65.73
2022-11-15T16:39:33.111Z,66.03
2022-11-15T16:42:05.603Z,65.79
2022-11-15T16:44:35.998Z,65.64
2022-11-15T16:47:06.275Z,65.80
2022-11-15T16:49:36.808Z,65.86
2022-11-15T16:52:06.956Z,65.98
2022-11-15T16:54:37.012Z,65.88
2022-11-15T16:57:07.137Z,65.96
2022-11-15T16:59:38.450Z,65.89
2022-11-15T17:02:16.235Z,65.96
2022-11-15T17:04:46.523Z,66.04
2022-11-15T17:07:16.843Z,66.27
2022-11-15T17:09:46.976Z,65.93
2022-11-15T17:12:17.097Z,65.64
2022-11-15T17:14:49.790Z,65.85
2022-11-15T17:17:20.123Z,65.93
2022-11-15T17:19:50.183Z,65.87
2022-11-15T17:22:20.156Z,65.94
2022-11-15T17:24:50.198Z,65.88
2022-11-15T17:27:20.262Z,65.90
2022-11-15T17:29:50.248Z,65.82
2022-11-15T17:32:20.256Z,65.70
2022-11-15T17:34:50.266Z,65.70
2022-11-15T17:37:20.279Z,65.64
2022-11-15T17:39:50.474Z,65.66
2022-11-15T17:42:20.723Z,65.79
2022-11-15T17:44:50.854Z,65.71
2022-11-15T17:47:20.828Z,65.90
2022-11-15T17:49:50.836Z,66.08
2022-11-15T17:52:20.823Z,66.04
2022-11-15T17:54:50.796Z,65.65
2022-11-15T17:57:20.896Z,65.84
2022-11-15T17:59:51.265Z,65.80
2022-11-15T18:02:21.715Z,65.82
2022-11-15T18:04:51.859Z,66.20
2022-11-15T18:07:22.057Z,66.25
2022-11-15T18:09:52.292Z,65.73
2022-11-15T18:12:22.487Z,65.91
2022-11-15T18:14:52.765Z,65.77
2022-11-15T18:17:23.041Z,65.80
2022-11-15T18:19:53.228Z,65.96
2022-11-15T18:22:24.248Z,65.88
2022-11-15T18:24:54.832Z,66.24
2022-11-15T18:27:25.027Z,66.04
2022-11-15T18:29:55.379Z,66.05
2022-11-15T18:32:25.571Z,66.13
2022-11-15T18:34:57.074Z,66.08
2022-11-15T18:37:27.271Z,65.93
2022-11-15T18:39:57.254Z,66.02
2022-11-15T18:42:27.442Z,65.87
2022-11-15T18:44:57.722Z,66.10
2022-11-15T18:47:27.947Z,66.11
2022-11-15T18:50:01.709Z,66.07
2022-11-15T18:52:31.946Z,65.85
2022-11-15T18:55:02.306Z,66.22
2022-11-15T18:57:33.216Z,65.75
2022-11-15T19:00:03.452Z,66.46
2022-11-15T19:02:33.714Z,66.28
2022-11-15T19:05:03.976Z,66.18
2022-11-15T19:07:34.090Z,66.31
2022-11-15T19:10:05.027Z,66.75
2022-11-15T19:12:35.218Z,66.21
2022-11-15T19:15:09.937Z,66.08
2022-11-15T19:17:40.459Z,66.37
2022-11-15T19:20:10.911Z,66.25
2022-11-15T19:22:41.129Z,66.66
2022-11-15T19:25:13.035Z,66.54
2022-11-15T19:27:43.258Z,66.30
2022-11-15T19:30:14.121Z,66.72
2022-11-15T19:32:44.393Z,66.62
2022-11-15T19:35:14.845Z,66.23
2022-11-15T19:37:44.983Z,66.25
2022-11-15T19:40:14.967Z,66.19
2022-11-15T19:42:44.971Z,66.27
2022-11-15T19:45:14.968Z,66.08
2022-11-15T19:47:44.990Z,66.46
2022-11-15T19:50:15.378Z,66.34
2022-11-15T19:52:45.750Z,65.97
2022-11-15T19:55:16.279Z,65.84
2022-11-15T19:57:46.322Z,65.99
2022-11-15T20:00:16.623Z,66.01
2022-11-15T20:02:46.756Z,65.96
2022-11-15T20:05:18.553Z,65.78
2022-11-15T20:07:51.668Z,65.83
2022-11-15T20:10:21.911Z,66.05
2022-11-15T20:12:52.302Z,65.91
2022-11-15T20:15:22.963Z,65.63
2022-11-15T20:17:53.226Z,66.19
2022-11-15T20:20:23.410Z,65.91
2022-11-15T20:22:55.065Z,66.10
2022-11-15T20:25:25.311Z,66.30
2022-11-15T20:27:55.647Z,66.49
2022-11-15T20:30:25.804Z,66.38
2022-11-15T20:32:55.800Z,66.21
2022-11-15T20:35:26.498Z,66.60
2022-11-15T20:37:56.700Z,66.51
2022-11-15T20:40:26.863Z,66.52
2022-11-15T20:42:57.104Z,66.61
2022-11-15T20:45:27.322Z,66.69
2022-11-15T20:48:03.615Z,67.05
2022-11-15T20:50:42.771Z,67.19
2022-11-15T20:53:19.091Z,66.98
2022-11-15T20:55:53.257Z,67.06
2022-11-15T20:58:23.397Z,67.40
2022-11-15T21:00:57.796Z,67.25
2022-11-15T21:03:28.054Z,67.17
2022-11-15T21:05:58.271Z,67.25
2022-11-15T21:08:28.751Z,67.18
2022-11-15T21:11:17.043Z,67.25
2022-11-15T21:13:47.212Z,66.86
2022-11-15T21:16:19.069Z,66.94
2022-11-15T21:18:49.217Z,66.90
2022-11-15T21:21:19.355Z,67.13
2022-11-15T21:23:49.982Z,67.09
2022-11-15T21:26:20.187Z,67.06
2022-11-15T21:28:50.657Z,66.83
2022-11-15T21:31:20.941Z,67.14
2022-11-15T21:33:51.139Z,67.22
2022-11-15T21:36:21.425Z,67.40
2022-11-15T21:38:51.646Z,67.27
2022-11-15T21:41:21.759Z,67.12
2022-11-15T21:43:51.813Z,67.38
2022-11-15T21:46:21.828Z,67.01
2022-11-15T21:48:52.112Z,67.12
2022-11-15T21:51:22.130Z,67.35
2022-11-15T21:53:52.705Z,67.34
2022-11-15T21:56:23.018Z,67.14
2022-11-15T21:58:53.250Z,67.23
2022-11-15T22:01:42.945Z,66.97
2022-11-15T22:04:13.764Z,67.19
2022-11-15T22:06:43.998Z,67.35
2022-11-15T22:09:14.313Z,67.25
2022-11-15T22:11:45.152Z,66.94
2022-11-15T22:14:15.663Z,66.86
2022-11-15T22:16:46.102Z,67.07
2022-11-15T22:19:16.534Z,66.81
2022-11-15T22:21:46.919Z,66.99
2022-11-15T22:24:17.228Z,67.50
2022-11-15T22:26:47.512Z,67.47
2022-11-15T22:29:17.770Z,67.69
2022-11-15T22:31:48.202Z,67.62
2022-11-15T22:34:18.737Z,67.40
2022-11-15T22:37:18.267Z,67.71
2022-11-15T22:39:39.293Z,67.53
2022-11-15T22:42:10.100Z,67.80
2022-11-15T22:44:40.341Z,68.26
2022-11-15T22:47:10.624Z,67.82
2022-11-15T22:49:40.872Z,68.12
2022-11-15T22:52:11.414Z,68.26
2022-11-15T22:54:42.921Z,68.30
2022-11-15T22:57:13.500Z,68.35
2022-11-15T22:59:44.659Z,68.62
2022-11-15T23:02:15.151Z,69.03
2022-11-15T23:04:45.906Z,68.52
2022-11-15T23:07:16.562Z,68.73
2022-11-15T23:09:51.852Z,68.89
2022-11-15T23:12:40.814Z,68.65
2022-11-15T23:15:11.472Z,69.09
2022-11-15T23:17:41.687Z,68.75
2022-11-15T23:20:41.480Z,68.75
2022-11-15T23:23:02.565Z,68.55
2022-11-15T23:25:32.690Z,68.62
2022-11-15T23:28:05.233Z,68.85
2022-11-15T23:30:57.921Z,68.91
2022-11-15T23:33:46.301Z,68.78
2022-11-15T23:36:16.470Z,69.06
2022-11-15T23:38:46.739Z,69.07
2022-11-15T23:41:17.022Z,68.90
2022-11-15T23:43:47.241Z,69.03
2022-11-15T23:46:17.475Z,69.10
2022-11-15T23:48:47.690Z,69.03
2022-11-15T23:51:17.925Z,68.88
2022-11-15T23:53:48.302Z,68.73
2022-11-15T23:56:20.613Z,68.74
2022-11-15T23:58:51.644Z,68.90
